map of ASR home
ASR - Airport
Location
City:  Kayseri, Kayseri (Kirklareli), Turkey
Name:Erkilet AB
ICAO:LTAU
IATA:ASR

Details
Type:Airport (Aerodrome, Airfield)
Use:Public/Civil, Military
Latitude:3846'13"N (38.770386)
Longitude:3529'44"E (35.495428)
Datum:WGS 1984
Elevation:3463 ft (1056 m)
Variation:5.78E (WMM2015v2 magnetic declination)
0.09 annual change
Runways:1
Longest:9841 × 145 ft (3000 × 44 m), paved

Time
Time Zone:UTC+3
Local Time:

Weather
METAR:LTAU 041350Z 07012KT CAVOK 10/M03 Q1023 NOSIG RMK RWY07 05014KT

Related Locations
Nearby:
Farthest:RVV: 11388 mi / 18327 km
Raivavae, Tubuai Islands, Austral Islands, PF

Find:

   beyond  
but within

Other Information
Maps:
NOTAMs:
Links:
Sources:

  
  • flag of Turkey
  

Sectional Chart

Flight Planning
at skyvector.com

Satellite Image

Google Maps Satellite view

 

Copyright © 2004-2019 Karl L. Swartz. All rights reserved.
The Great Circle Mapper name and logo are trademarks of the Great Circle Mapper.
All other trademarks mentioned herein belong to their respective owners.
Please see credits for attibutions and further copyright information.

  Follow gcmap on Facebook Follow gcmap on Twitter GCmap on LinkedIn

hCard Microformat

Geo Microformat